Time;durP1;ratioP1;P1;durP2;ratioP2;P2;SDS_P1;SDS_P2;PMS_P1;PMS_P2;Temp;Humidity;BMP_temperature;BMP_pressure;BME280_temperature;BME280_humidity;BME280_pressure;Samples;Min_cycle;Max_cycle;Signal;HPM_P1;HPM_P2
2022/04/24 00:02:17;;;;;;;20.03;16.13;;;14.00;1.00;;;;;;5114237;28;20207;-71
2022/04/24 00:04:43;;;;;;;17.47;15.60;;;13.90;99.90;;;;;;5114776;28;20248;-72
2022/04/24 00:07:09;;;;;;;16.53;14.53;;;13.90;1.00;;;;;;5115157;28;20230;-72
2022/04/24 00:09:37;;;;;;;18.77;16.03;;;13.90;1.00;;;;;;5115139;28;20171;-71
2022/04/24 00:12:04;;;;;;;18.37;15.47;;;13.90;1.00;;;;;;5114574;28;20201;-72
2022/04/24 00:14:29;;;;;;;19.27;15.00;;;13.90;99.90;;;;;;5114346;28;21260;-72
2022/04/24 00:16:55;;;;;;;19.33;15.17;;;13.90;99.90;;;;;;5114138;28;20175;-70
2022/04/24 00:19:20;;;;;;;16.83;14.67;;;13.90;99.90;;;;;;5114429;28;20209;-71
2022/04/24 00:21:46;;;;;;;17.40;14.20;;;13.90;99.90;;;;;;5114535;28;20175;-72
2022/04/24 00:24:12;;;;;;;17.53;14.83;;;13.80;99.90;;;;;;5114402;28;20668;-72
2022/04/24 00:26:38;;;;;;;19.53;15.17;;;13.80;99.90;;;;;;5114343;28;20167;-72
2022/04/24 00:29:04;;;;;;;17.37;14.03;;;13.80;1.00;;;;;;5114262;28;20240;-72
2022/04/24 00:31:30;;;;;;;15.43;13.57;;;13.80;1.00;;;;;;5095415;28;20527;-72
2022/04/24 00:33:56;;;;;;;21.33;13.37;;;13.80;99.90;;;;;;5114270;28;20363;-72
2022/04/24 00:36:21;;;;;;;14.70;12.53;;;13.80;99.90;;;;;;5114190;28;20576;-72
2022/04/24 00:38:47;;;;;;;14.93;12.67;;;13.80;1.00;;;;;;5114185;28;20681;-72
2022/04/24 00:41:12;;;;;;;16.27;12.87;;;13.80;99.90;;;;;;5114198;28;20164;-72
2022/04/24 00:43:38;;;;;;;15.07;12.93;;;13.70;1.00;;;;;;5095476;28;20280;-72
2022/04/24 00:46:16;;;;;;;13.13;11.83;;;13.80;99.90;;;;;;5113710;28;20174;-72
2022/04/24 00:48:43;;;;;;;13.33;12.00;;;13.80;99.90;;;;;;5114052;28;20208;-72
2022/04/24 00:51:09;;;;;;;12.43;11.17;;;13.80;1.00;;;;;;5113412;28;20403;-72
2022/04/24 00:53:36;;;;;;;12.07;10.87;;;13.80;1.00;;;;;;5113853;28;20288;-72
2022/04/24 00:56:02;;;;;;;11.93;10.70;;;13.70;99.90;;;;;;5113563;28;20176;-72
2022/04/24 00:58:28;;;;;;;13.27;10.80;;;13.80;1.00;;;;;;5095079;28;20187;-72
2022/04/24 01:00:55;;;;;;;11.60;9.83;;;13.80;1.00;;;;;;5113872;28;20522;-72
2022/04/24 01:03:21;;;;;;;11.20;10.10;;;13.70;1.00;;;;;;5113793;28;20207;-72
2022/04/24 01:05:46;;;;;;;14.57;10.40;;;13.70;99.90;;;;;;5095786;28;20208;-72
2022/04/24 01:08:12;;;;;;;11.40;10.30;;;13.70;1.00;;;;;;5095670;28;20227;-72
2022/04/24 01:10:38;;;;;;;10.80;9.70;;;13.70;99.90;;;;;;5113717;28;20185;-72
2022/04/24 01:13:05;;;;;;;11.07;9.87;;;13.70;99.90;;;;;;5113111;28;20178;-72
2022/04/24 01:15:32;;;;;;;10.60;9.50;;;13.60;97.60;;;;;;5095818;28;20175;-72
2022/04/24 01:17:58;;;;;;;10.37;9.37;;;13.60;1.00;;;;;;5113619;28;20169;-72
2022/04/24 01:20:24;;;;;;;9.87;8.87;;;13.60;1.00;;;;;;5113774;28;20250;-71
2022/04/24 01:22:50;;;;;;;9.77;8.87;;;13.50;1.00;;;;;;5113696;28;20280;-72
2022/04/24 01:25:15;;;;;;;10.30;8.47;;;13.50;1.00;;;;;;5113499;28;20622;-71
2022/04/24 01:27:41;;;;;;;9.50;8.47;;;13.50;1.00;;;;;;5112985;28;20171;-71
2022/04/24 01:30:07;;;;;;;9.10;8.20;;;13.40;1.00;;;;;;5113489;28;20170;-71
2022/04/24 01:32:38;;;;;;;9.80;8.70;;;13.30;1.00;;;;;;5113303;28;20183;-72
2022/04/24 01:35:04;;;;;;;9.10;8.20;;;13.30;1.00;;;;;;5095176;28;20691;-72
2022/04/24 01:37:30;;;;;;;9.43;8.43;;;13.30;1.00;;;;;;5113473;28;20163;-71
2022/04/24 01:39:56;;;;;;;8.90;8.10;;;13.20;1.00;;;;;;5094983;28;20176;-71
2022/04/24 01:42:22;;;;;;;9.20;8.40;;;13.20;1.00;;;;;;5112667;28;20175;-71
2022/04/24 01:44:48;;;;;;;8.97;7.83;;;13.20;1.00;;;;;;5113315;28;20665;-72
2022/04/24 01:47:13;;;;;;;8.43;7.60;;;13.20;1.00;;;;;;5113499;28;20167;-71
2022/04/24 01:49:39;;;;;;;8.30;7.50;;;13.10;1.00;;;;;;5113311;28;20183;-71
2022/04/24 01:52:08;;;;;;;9.17;8.23;;;13.00;1.00;;;;;;5113302;28;20167;-71
2022/04/24 01:54:35;;;;;;;8.13;7.33;;;13.00;1.00;;;;;;5112993;28;20174;-72
2022/04/24 01:57:00;;;;;;;7.90;7.10;;;12.90;1.00;;;;;;5112567;28;20223;-72
2022/04/24 01:59:26;;;;;;;8.53;7.30;;;12.90;1.00;;;;;;5113352;28;20174;-71
2022/04/24 02:01:52;;;;;;;7.20;6.50;;;12.90;1.00;;;;;;5113317;28;20623;-72
2022/04/24 02:04:23;;;;;;;7.57;6.87;;;12.80;1.00;;;;;;5081542;28;20301;-72
2022/04/24 02:06:51;;;;;;;7.50;6.80;;;12.70;99.90;;;;;;5116937;28;20170;-72
2022/04/24 02:09:16;;;;;;;7.03;6.43;;;12.70;99.90;;;;;;5116782;28;20230;-72
2022/04/24 02:11:42;;;;;;;7.83;7.00;;;12.70;96.20;;;;;;5116701;28;20179;-71
2022/04/24 02:14:08;;;;;;;8.97;7.30;;;12.60;99.90;;;;;;5116936;28;20177;-72
2022/04/24 02:16:33;;;;;;;7.67;6.63;;;12.60;99.90;;;;;;5117043;28;20175;-72
2022/04/24 02:18:59;;;;;;;8.13;6.40;;;12.60;99.90;;;;;;5116969;28;20167;-71
2022/04/24 02:21:27;;;;;;;7.57;6.93;;;12.50;1.00;;;;;;5116826;28;20171;-71
2022/04/24 02:23:53;;;;;;;7.97;6.80;;;12.40;1.00;;;;;;5116535;28;20244;-72
2022/04/24 02:26:18;;;;;;;7.53;6.47;;;12.40;1.00;;;;;;5097882;28;20566;-72
2022/04/24 02:28:44;;;;;;;8.33;6.30;;;12.30;1.00;;;;;;5116801;28;20224;-72
2022/04/24 02:31:10;;;;;;;7.30;6.30;;;12.30;1.00;;;;;;5116657;28;20171;-71
2022/04/24 02:33:35;;;;;;;7.17;6.47;;;12.20;99.90;;;;;;5116691;28;20171;-72
2022/04/24 02:36:01;;;;;;;7.10;6.40;;;12.20;1.00;;;;;;5116604;28;20193;-72
2022/04/24 02:38:27;;;;;;;6.83;6.20;;;12.10;1.00;;;;;;5116298;28;20171;-72
2022/04/24 02:40:54;;;;;;;7.40;6.57;;;12.10;1.00;;;;;;5097770;28;20172;-72
2022/04/24 02:43:19;;;;;;;6.73;6.10;;;12.10;1.00;;;;;;5098128;28;20199;-71
2022/04/24 02:45:45;;;;;;;7.27;6.53;;;12.10;99.90;;;;;;5097941;28;20654;-71
2022/04/24 02:48:11;;;;;;;7.03;6.33;;;12.00;99.90;;;;;;5116391;28;20171;-72
2022/04/24 02:50:39;;;;;;;7.07;6.40;;;12.00;1.00;;;;;;5116361;28;20186;-72
2022/04/24 02:53:06;;;;;;;7.17;6.40;;;11.90;1.00;;;;;;5115827;28;20637;-72
2022/04/24 02:55:32;;;;;;;8.00;6.40;;;11.90;1.00;;;;;;5115954;28;20522;-72
2022/04/24 02:57:57;;;;;;;11.23;6.10;;;11.90;99.90;;;;;;5116051;28;20218;-72
2022/04/24 03:00:25;;;;;;;7.43;6.77;;;11.80;1.00;;;;;;5116140;28;20178;-72
2022/04/24 03:02:51;;;;;;;8.33;6.80;;;11.80;1.00;;;;;;5116091;28;20202;-72
2022/04/24 03:05:24;;;;;;;6.97;6.30;;;11.70;94.90;;;;;;5116175;28;20183;-72
2022/04/24 03:07:50;;;;;;;9.77;6.80;;;11.80;88.80;;;;;;5115890;28;20171;-72
2022/04/24 03:10:16;;;;;;;7.37;6.57;;;11.70;1.00;;;;;;5115508;28;20179;-72
2022/04/24 03:12:43;;;;;;;7.37;6.57;;;11.70;1.00;;;;;;5115758;28;20179;-72
2022/04/24 03:15:12;;;;;;;7.50;6.80;;;11.60;99.90;;;;;;5115100;28;20163;-72
2022/04/24 03:17:38;;;;;;;7.50;6.80;;;11.60;1.00;;;;;;5116005;28;20266;-72
2022/04/24 03:20:08;;;;;;;7.37;6.67;;;11.60;99.90;;;;;;5115453;28;20253;-72
2022/04/24 03:22:34;;;;;;;8.00;6.60;;;11.50;1.00;;;;;;5115554;28;20629;-71
2022/04/24 03:25:00;;;;;;;9.03;6.37;;;11.50;1.00;;;;;;5114931;28;20262;-71
2022/04/24 03:27:26;;;;;;;7.20;6.60;;;11.50;1.00;;;;;;5115655;28;20190;-71
2022/04/24 03:29:52;;;;;;;8.83;6.60;;;11.50;99.90;;;;;;5115473;28;20167;-71
2022/04/24 03:32:17;;;;;;;9.23;6.60;;;11.40;1.00;;;;;;5115330;28;20183;-71
2022/04/24 03:34:43;;;;;;;7.10;6.40;;;11.40;99.90;;;;;;5115118;28;20181;-71
2022/04/24 03:37:08;;;;;;;7.73;7.03;;;11.40;1.00;;;;;;5115212;28;20195;-71
2022/04/24 03:39:34;;;;;;;7.10;6.50;;;11.40;1.00;;;;;;5096667;28;20279;-72
2022/04/24 03:42:00;;;;;;;6.87;6.37;;;11.40;1.00;;;;;;5114973;28;20163;-71
2022/04/24 03:44:26;;;;;;;7.10;6.40;;;11.40;1.00;;;;;;5114667;28;20214;-72
2022/04/24 03:46:52;;;;;;;7.13;6.50;;;11.40;1.00;;;;;;5114853;28;20198;-72
2022/04/24 03:49:17;;;;;;;7.03;6.43;;;11.40;1.00;;;;;;5114877;28;20183;-72
2022/04/24 03:51:43;;;;;;;7.10;6.40;;;11.40;1.00;;;;;;5114550;28;20269;-72
2022/04/24 03:54:09;;;;;;;11.27;6.67;;;11.50;99.90;;;;;;5114547;28;20668;-71
2022/04/24 03:56:35;;;;;;;6.90;6.30;;;11.50;99.90;;;;;;5114876;28;20701;-72
2022/04/24 03:59:01;;;;;;;7.37;6.47;;;11.50;99.90;;;;;;5114884;28;20172;-72
2022/04/24 04:01:27;;;;;;;7.57;6.87;;;11.40;99.90;;;;;;5114714;28;20189;-71
2022/04/24 04:03:53;;;;;;;7.67;6.50;;;11.40;1.00;;;;;;5114436;28;20214;-71
2022/04/24 04:06:19;;;;;;;7.53;6.83;;;11.40;1.00;;;;;;5114646;28;20522;-72
2022/04/24 04:08:45;;;;;;;7.03;6.40;;;11.30;1.00;;;;;;5095678;28;20210;-71
2022/04/24 04:11:11;;;;;;;7.30;6.60;;;11.30;87.10;;;;;;5114408;28;20593;-71
2022/04/24 04:13:36;;;;;;;6.50;6.00;;;11.30;1.00;;;;;;5114319;28;20175;-71
2022/04/24 04:16:02;;;;;;;7.53;6.80;;;11.30;1.00;;;;;;5114335;28;20167;-71
2022/04/24 04:18:28;;;;;;;8.40;6.53;;;11.30;99.90;;;;;;5114742;28;20471;-71
2022/04/24 04:20:53;;;;;;;6.90;6.30;;;11.30;99.90;;;;;;5114153;28;20167;-71
2022/04/24 04:23:19;;;;;;;7.70;7.10;;;11.20;1.00;;;;;;5113717;28;20558;-72
2022/04/24 04:25:44;;;;;;;7.73;7.13;;;11.20;1.00;;;;;;5113848;28;20175;-71
2022/04/24 04:28:10;;;;;;;7.10;6.50;;;11.20;1.00;;;;;;5078838;28;20210;-71
2022/04/24 04:30:35;;;;;;;6.90;6.30;;;11.20;1.00;;;;;;5096100;28;20183;-72
2022/04/24 04:33:01;;;;;;;7.40;6.77;;;11.20;99.90;;;;;;5113786;28;20175;-72
2022/04/24 04:35:27;;;;;;;7.50;6.80;;;11.30;99.90;;;;;;5113873;28;20605;-72
2022/04/24 04:37:53;;;;;;;7.60;6.83;;;11.30;1.00;;;;;;5113482;28;20163;-71
2022/04/24 04:40:20;;;;;;;7.33;6.73;;;11.20;99.90;;;;;;5113848;28;20182;-72
2022/04/24 04:42:48;;;;;;;12.23;7.13;;;11.20;1.00;;;;;;5113568;28;20167;-71
2022/04/24 04:45:17;;;;;;;7.70;6.80;;;11.30;1.00;;;;;;5113594;28;20254;-72
2022/04/24 04:47:43;;;;;;;7.87;7.17;;;11.40;99.90;;;;;;5095445;28;20526;-72
2022/04/24 04:50:09;;;;;;;7.83;7.20;;;11.60;1.00;;;;;;5113731;28;20575;-72
2022/04/24 04:52:35;;;;;;;7.60;7.00;;;11.80;99.90;;;;;;5113300;28;20175;-72
2022/04/24 04:55:05;;;;;;;7.60;7.00;;;12.00;1.00;;;;;;5095382;28;20171;-72
2022/04/24 04:57:31;;;;;;;9.13;7.10;;;12.10;64.10;;;;;;5113009;28;20234;-71
2022/04/24 04:59:56;;;;;;;7.23;6.63;;;12.30;99.90;;;;;;5113513;28;20171;-71
2022/04/24 05:02:22;;;;;;;8.30;7.17;;;12.70;91.10;;;;;;5113597;28;20649;-71
2022/04/24 05:04:48;;;;;;;7.40;6.73;;;13.20;1.00;;;;;;5113334;28;20218;-71
2022/04/24 05:07:14;;;;;;;9.17;6.37;;;13.90;99.90;;;;;;5113689;28;20641;-71
2022/04/24 05:09:40;;;;;;;8.77;7.17;;;14.10;1.00;;;;;;5113156;28;20175;-71
2022/04/24 05:12:07;;;;;;;7.00;6.50;;;14.40;99.90;;;;;;5113596;28;20176;-71
2022/04/24 05:14:32;;;;;;;7.27;6.53;;;14.50;99.90;;;;;;5113324;28;20167;-71
2022/04/24 05:16:59;;;;;;;8.67;6.70;;;14.80;1.00;;;;;;5113071;28;20214;-71
2022/04/24 05:19:28;;;;;;;7.83;7.03;;;14.90;1.00;;;;;;5112951;28;20171;-71
2022/04/24 05:21:53;;;;;;;7.30;6.70;;;15.10;1.00;;;;;;5113315;28;20243;-71
2022/04/24 05:24:19;;;;;;;7.23;6.63;;;15.30;1.00;;;;;;5113456;28;20576;-72
2022/04/24 05:26:45;;;;;;;7.47;6.87;;;15.50;1.00;;;;;;5113371;28;20586;-72
2022/04/24 05:29:10;;;;;;;7.20;6.60;;;15.40;1.00;;;;;;5113366;28;20167;-72
2022/04/24 05:31:36;;;;;;;7.37;6.67;;;15.50;1.00;;;;;;5094833;28;20680;-72
2022/04/24 05:34:02;;;;;;;7.33;6.73;;;15.60;1.00;;;;;;5112789;28;20174;-72
2022/04/24 05:36:27;;;;;;;6.37;5.87;;;15.50;1.00;;;;;;5113135;28;20226;-73
2022/04/24 05:38:53;;;;;;;7.23;6.70;;;15.30;1.00;;;;;;5116410;28;20236;-72
2022/04/24 05:41:19;;;;;;;8.97;7.30;;;15.10;1.00;;;;;;5116811;28;20657;-72
2022/04/24 05:43:44;;;;;;;7.80;7.10;;;15.00;1.00;;;;;;5116630;28;20642;-73
2022/04/24 05:46:10;;;;;;;8.00;7.40;;;15.60;1.00;;;;;;5117091;28;20167;-73
2022/04/24 05:48:35;;;;;;;7.30;6.60;;;15.80;1.00;;;;;;5116637;28;20518;-74
2022/04/24 05:51:01;;;;;;;8.00;7.30;;;16.30;99.90;;;;;;5116863;28;20159;-74
2022/04/24 05:53:26;;;;;;;8.23;7.50;;;16.40;99.90;;;;;;5116981;28;20304;-75
2022/04/24 05:55:52;;;;;;;7.40;6.80;;;16.40;99.90;;;;;;5098987;28;20171;-76
2022/04/24 05:58:18;;;;;;;7.47;6.87;;;16.60;99.90;;;;;;5094751;28;20329;-75
2022/04/24 06:00:43;;;;;;;7.80;7.30;;;16.50;99.90;;;;;;5096527;28;20275;-74
2022/04/24 06:03:09;;;;;;;7.77;7.17;;;15.70;99.90;;;;;;5096188;28;20250;-75
2022/04/24 06:05:35;;;;;;;8.17;7.47;;;15.40;99.90;;;;;;5078462;28;20174;-74
2022/04/24 06:08:00;;;;;;;8.00;7.40;;;15.10;1.00;;;;;;5096589;28;20175;-74
2022/04/24 06:10:26;;;;;;;8.03;7.17;;;15.30;1.00;;;;;;5094860;28;20168;-74
2022/04/24 06:12:53;;;;;;;7.83;7.23;;;16.10;99.90;;;;;;5096144;28;20167;-76
2022/04/24 06:15:27;;;;;;;8.30;7.53;;;16.60;99.90;;;;;;5096367;28;20203;-76
2022/04/24 06:17:54;;;;;;;8.30;7.60;;;17.00;99.90;;;;;;5095722;28;20221;-77
2022/04/24 06:20:21;;;;;;;8.20;7.60;;;16.80;99.90;;;;;;5096213;28;20168;-77
2022/04/24 06:22:52;;;;;;;8.23;7.60;;;17.10;99.90;;;;;;5096011;28;20167;-76
2022/04/24 06:25:20;;;;;;;7.77;7.27;;;17.50;99.90;;;;;;5095632;28;20172;-76
2022/04/24 06:27:47;;;;;;;8.73;8.00;;;17.40;99.90;;;;;;5096518;28;20199;-76
2022/04/24 06:30:13;;;;;;;8.87;8.17;;;17.10;99.90;;;;;;5095967;28;20684;-78
2022/04/24 06:32:41;;;;;;;8.87;8.17;;;17.20;99.90;;;;;;5095332;28;20201;-78
2022/04/24 06:35:09;;;;;;;8.50;7.90;;;16.60;99.90;;;;;;5094482;28;20194;-77
2022/04/24 06:37:37;;;;;;;9.40;8.57;;;16.80;99.90;;;;;;5094304;28;20180;-78
2022/04/24 06:40:04;;;;;;;9.07;8.27;;;17.40;99.90;;;;;;5095971;28;20168;-78
2022/04/24 06:42:30;;;;;;;8.00;7.40;;;17.90;99.90;;;;;;5096050;28;20639;-78
2022/04/24 06:44:56;;;;;;;8.45;7.85;;;18.10;99.90;;;;;;5095358;28;20239;-78
2022/04/24 06:47:22;;;;;;;8.63;7.93;;;18.80;99.90;;;;;;5095311;28;20517;-78
2022/04/24 06:49:48;;;;;;;9.32;8.60;;;18.80;99.90;;;;;;5094495;28;20168;-79
2022/04/24 06:52:13;;;;;;;9.32;8.63;;;19.00;99.90;;;;;;5095459;28;20168;-79
2022/04/24 06:54:39;;;;;;;8.65;7.93;;;18.30;99.90;;;;;;5095494;28;20250;-79
2022/04/24 06:57:05;;;;;;;9.30;8.50;;;18.40;99.90;;;;;;5105386;28;20311;-79
2022/04/24 06:59:30;;;;;;;9.93;9.00;;;18.80;99.90;;;;;;5097926;28;20182;-79
2022/04/24 07:01:56;;;;;;;8.30;7.70;;;18.50;99.90;;;;;;5117498;28;20171;-79
2022/04/24 07:04:22;;;;;;;9.18;8.27;;;18.40;99.90;;;;;;5116096;28;20228;-79
2022/04/24 07:06:47;;;;;;;9.25;8.55;;;18.90;99.90;;;;;;5115897;28;20186;-78
2022/04/24 07:09:13;;;;;;;9.70;8.80;;;19.30;99.90;;;;;;5097430;28;20300;-79
2022/04/24 07:11:40;;;;;;;9.68;8.73;;;19.20;99.90;;;;;;5115953;28;20195;-79
2022/04/24 07:14:06;;;;;;;9.68;8.82;;;19.40;99.90;;;;;;5116091;28;20246;-79
2022/04/24 07:16:33;;;;;;;8.82;8.13;;;19.70;99.90;;;;;;5096888;28;20221;-79
2022/04/24 07:18:59;;;;;;;9.38;8.57;;;20.40;99.90;;;;;;5115440;28;20171;-78
2022/04/24 07:21:25;;;;;;;9.48;8.57;;;21.10;99.90;;;;;;5097092;28;20171;-79
2022/04/24 07:23:51;;;;;;;9.13;8.52;;;21.50;99.90;;;;;;5115203;28;20228;-78
2022/04/24 07:26:16;;;;;;;9.65;8.85;;;20.80;99.90;;;;;;5115177;28;20175;-78
2022/04/24 07:28:42;;;;;;;9.65;8.93;;;20.30;99.90;;;;;;5114849;28;20638;-77
2022/04/24 07:31:07;;;;;;;9.43;8.73;;;19.60;99.90;;;;;;5115060;28;20187;-78
2022/04/24 07:33:34;;;;;;;9.48;8.55;;;19.90;99.90;;;;;;5115428;28;20213;-78
2022/04/24 07:36:00;;;;;;;9.95;9.23;;;20.20;99.90;;;;;;5096871;28;20222;-78
2022/04/24 07:38:25;;;;;;;9.25;8.55;;;20.70;99.90;;;;;;5096672;28;20252;-77
2022/04/24 07:40:51;;;;;;;9.02;8.30;;;21.50;99.90;;;;;;5114836;28;20220;-77
2022/04/24 07:43:17;;;;;;;9.65;8.90;;;21.90;99.90;;;;;;5114850;28;20206;-77
2022/04/24 07:45:47;;;;;;;9.35;8.65;;;22.40;99.90;;;;;;5113904;28;20246;-78
2022/04/24 07:48:14;;;;;;;9.38;8.57;;;22.20;99.90;;;;;;5115000;28;20186;-78
2022/04/24 07:50:44;;;;;;;8.98;8.38;;;22.20;99.90;;;;;;5114646;28;20246;-78
2022/04/24 07:53:11;;;;;;;9.48;8.70;;;21.90;99.90;;;;;;5114405;28;20223;-78
2022/04/24 07:55:39;;;;;;;10.25;9.27;;;21.30;99.90;;;;;;5114231;28;20167;-78
2022/04/24 07:58:05;;;;;;;9.48;8.77;;;20.40;99.90;;;;;;5113541;28;20713;-78
2022/04/24 08:00:32;;;;;;;9.52;8.82;;;20.00;99.90;;;;;;5114399;28;20171;-79
2022/04/24 08:03:03;;;;;;;9.88;8.88;;;20.00;99.90;;;;;;5115085;28;20183;-79
2022/04/24 08:05:33;;;;;;;9.95;9.18;;;20.00;99.90;;;;;;5114836;28;20179;-79
2022/04/24 08:08:01;;;;;;;10.55;9.65;;;20.20;99.90;;;;;;5096141;28;20164;-79
2022/04/24 08:10:30;;;;;;;10.13;9.32;;;19.50;99.90;;;;;;5096990;28;20202;-78
2022/04/24 08:12:55;;;;;;;9.73;8.88;;;20.30;99.90;;;;;;5096151;28;20650;-78
2022/04/24 08:15:22;;;;;;;9.40;8.70;;;20.50;99.90;;;;;;5114643;28;20163;-78
2022/04/24 08:17:48;;;;;;;10.00;9.23;;;21.20;99.90;;;;;;5115211;28;20186;-78
2022/04/24 08:20:14;;;;;;;9.40;8.60;;;21.20;99.90;;;;;;5116476;28;20175;-78
2022/04/24 08:22:41;;;;;;;9.85;9.15;;;21.70;99.90;;;;;;5116625;28;20167;-78
2022/04/24 08:25:08;;;;;;;9.48;8.50;;;21.70;99.90;;;;;;5115288;28;20197;-78
2022/04/24 08:27:34;;;;;;;9.65;8.95;;;22.80;99.90;;;;;;5115421;28;20166;-77
2022/04/24 08:30:00;;;;;;;9.55;8.75;;;21.60;99.90;;;;;;5114686;28;20178;-78
2022/04/24 08:32:26;;;;;;;9.75;9.05;;;22.20;99.90;;;;;;5115713;28;20172;-78
2022/04/24 08:34:52;;;;;;;10.10;9.20;;;21.50;99.90;;;;;;5114518;28;20678;-77
2022/04/24 08:37:18;;;;;;;9.77;8.98;;;21.10;99.90;;;;;;5114736;28;20240;-78
2022/04/24 08:39:43;;;;;;;10.00;9.20;;;21.60;99.90;;;;;;5113928;28;20171;-78
2022/04/24 08:42:09;;;;;;;9.23;8.30;;;22.10;99.90;;;;;;5114373;28;20209;-79
2022/04/24 08:44:36;;;;;;;8.82;7.97;;;22.50;99.90;;;;;;5113951;28;20268;-78
2022/04/24 08:47:03;;;;;;;10.18;9.23;;;22.40;99.90;;;;;;5114454;28;20163;-78
2022/04/24 08:49:31;;;;;;;9.63;8.82;;;22.30;99.90;;;;;;5115869;28;20216;-79
2022/04/24 08:51:59;;;;;;;9.77;9.02;;;22.60;99.90;;;;;;5113591;28;20159;-78
2022/04/24 08:54:27;;;;;;;9.77;8.93;;;21.50;99.90;;;;;;5113748;28;20179;-77
2022/04/24 08:56:56;;;;;;;9.60;8.90;;;21.50;99.90;;;;;;5113631;28;20234;-78
2022/04/24 08:59:22;;;;;;;9.25;8.55;;;22.60;99.90;;;;;;5118529;28;20220;-79
2022/04/24 09:01:49;;;;;;;10.05;9.10;;;23.10;99.90;;;;;;5116118;28;20171;-78
2022/04/24 09:04:15;;;;;;;10.77;9.88;;;22.20;99.90;;;;;;5114475;28;20247;-79
2022/04/24 09:06:42;;;;;;;10.65;9.65;;;21.80;99.90;;;;;;5117671;28;20167;-78
2022/04/24 09:09:08;;;;;;;11.05;9.98;;;22.20;99.90;;;;;;5119875;28;20244;-79
2022/04/24 09:11:34;;;;;;;9.60;8.80;;;22.30;99.90;;;;;;5119321;28;20263;-79
2022/04/24 09:14:20;;;;;;;10.00;9.07;;;21.50;99.90;;;;;;5116142;28;20197;-78
2022/04/24 09:16:48;;;;;;;9.63;8.73;;;21.50;99.90;;;;;;5100708;28;20193;-78
2022/04/24 09:19:19;;;;;;;10.10;9.18;;;21.20;99.90;;;;;;5116012;28;20170;-78
2022/04/24 09:21:46;;;;;;;9.50;8.75;;;21.50;99.90;;;;;;5097865;28;20182;-78
2022/04/24 09:24:11;;;;;;;10.07;9.27;;;21.60;99.90;;;;;;5115751;28;20206;-78
2022/04/24 09:26:37;;;;;;;10.15;9.20;;;21.60;99.90;;;;;;5113653;28;20175;-78
2022/04/24 09:29:10;;;;;;;9.73;8.93;;;21.30;99.90;;;;;;5115488;28;20630;-78
2022/04/24 09:31:36;;;;;;;9.77;8.98;;;21.50;99.90;;;;;;5114249;28;20619;-78
2022/04/24 09:34:01;;;;;;;10.23;9.38;;;21.00;99.90;;;;;;5114555;28;20220;-78
2022/04/24 09:36:27;;;;;;;10.50;9.60;;;22.20;99.90;;;;;;5116341;28;20206;-78
2022/04/24 09:38:53;;;;;;;9.20;8.50;;;22.00;99.90;;;;;;5118728;28;20174;-79
2022/04/24 09:41:21;;;;;;;8.95;8.25;;;23.00;99.90;;;;;;5115158;28;20170;-79
2022/04/24 09:43:47;;;;;;;11.40;8.57;;;23.60;99.90;;;;;;5096664;28;20253;-78
2022/04/24 09:46:13;;;;;;;9.65;8.82;;;22.30;99.90;;;;;;5116757;28;20178;-79
2022/04/24 09:48:38;;;;;;;9.50;8.70;;;22.80;99.90;;;;;;5114786;28;20163;-78
2022/04/24 09:51:04;;;;;;;10.02;9.23;;;21.50;99.90;;;;;;5113652;28;20209;-78
2022/04/24 09:53:31;;;;;;;9.00;8.30;;;22.10;99.90;;;;;;5114874;28;20692;-79
2022/04/24 09:55:59;;;;;;;9.20;8.50;;;22.90;99.90;;;;;;5113784;28;20192;-78
2022/04/24 09:58:25;;;;;;;10.18;9.25;;;23.20;99.90;;;;;;5113751;28;20194;-78
2022/04/24 10:00:51;;;;;;;8.65;8.05;;;21.90;99.90;;;;;;5112862;28;20193;-78
2022/04/24 10:03:18;;;;;;;9.30;8.45;;;21.40;99.90;;;;;;5112838;28;20234;-81
2022/04/24 10:05:47;;;;;;;8.32;7.63;;;22.80;99.90;;;;;;5112519;28;20168;-79
2022/04/24 10:08:14;;;;;;;9.70;8.85;;;24.20;99.90;;;;;;5112866;28;20201;-79
2022/04/24 10:10:39;;;;;;;9.35;8.32;;;23.40;99.90;;;;;;5112929;28;20208;-80
2022/04/24 10:13:09;;;;;;;9.13;8.38;;;24.00;99.90;;;;;;5113180;28;20167;-77
2022/04/24 10:15:38;;;;;;;9.07;8.18;;;22.70;99.90;;;;;;5112417;28;20311;-78
2022/04/24 10:18:30;;;;;;;9.57;8.60;;;22.00;99.90;;;;;;5112740;28;20648;-78
2022/04/24 10:21:33;;;;;;;9.88;9.02;;;22.80;99.90;;;;;;5111990;28;20167;-78
2022/04/24 10:24:09;;;;;;;10.32;8.52;;;22.40;99.90;;;;;;5113852;28;20272;-79
2022/04/24 10:26:35;;;;;;;9.05;8.15;;;22.30;99.90;;;;;;5116348;28;20171;-79
2022/04/24 10:29:04;;;;;;;9.52;8.63;;;21.50;99.90;;;;;;5116816;28;20524;-79
2022/04/24 10:31:44;;;;;;;9.27;8.48;;;20.80;99.90;;;;;;5097859;28;20269;-78
2022/04/24 10:34:11;;;;;;;8.63;7.82;;;21.00;99.90;;;;;;5116092;28;20163;-79
2022/04/24 10:36:37;;;;;;;8.43;7.82;;;22.30;99.90;;;;;;5115587;28;20186;-79
2022/04/24 10:39:16;;;;;;;8.57;7.68;;;21.90;99.90;;;;;;5115373;28;20182;-77
2022/04/24 10:42:09;;;;;;;9.15;6.90;;;21.10;99.90;;;;;;5097311;28;20265;-78
2022/04/24 10:44:35;;;;;;;8.82;7.95;;;21.40;99.90;;;;;;5116014;28;20211;-79
2022/04/24 10:47:10;;;;;;;8.60;7.90;;;21.40;99.90;;;;;;5115767;28;20181;-79
2022/04/24 10:49:36;;;;;;;7.55;6.95;;;22.10;99.90;;;;;;5115446;28;20167;-79
2022/04/24 10:52:03;;;;;;;7.55;6.53;;;21.50;99.90;;;;;;5115613;28;20558;-80
2022/04/24 10:54:38;;;;;;;8.85;8.15;;;21.40;99.90;;;;;;5114758;28;20290;-80
2022/04/24 10:57:21;;;;;;;7.80;7.10;;;20.00;99.90;;;;;;5114389;28;20222;-80
2022/04/24 10:59:51;;;;;;;8.27;7.75;;;20.60;99.90;;;;;;5115312;28;20201;-80
2022/04/24 11:02:33;;;;;;;7.85;7.05;;;21.40;99.90;;;;;;5115972;28;20159;-80
2022/04/24 11:05:11;;;;;;;8.30;7.60;;;20.70;99.90;;;;;;5115342;28;20198;-80
2022/04/24 11:07:38;;;;;;;8.57;7.78;;;21.00;99.90;;;;;;5115190;28;20175;-79
2022/04/24 11:10:09;;;;;;;7.75;7.05;;;21.10;99.90;;;;;;5114950;28;20262;-80
2022/04/24 11:12:35;;;;;;;8.10;7.40;;;21.10;99.90;;;;;;5115544;28;20172;-80
2022/04/24 11:15:09;;;;;;;7.15;6.60;;;21.20;99.90;;;;;;5115401;28;20193;-79
2022/04/24 11:17:36;;;;;;;7.55;7.05;;;21.20;99.90;;;;;;5115160;28;20172;-80
2022/04/24 11:20:08;;;;;;;8.00;7.30;;;21.30;99.90;;;;;;5115127;28;20177;-79
2022/04/24 11:22:48;;;;;;;7.30;6.68;;;21.60;99.90;;;;;;5114637;28;20164;-78
2022/04/24 11:25:15;;;;;;;7.68;7.07;;;20.90;99.90;;;;;;5115431;28;20183;-79
2022/04/24 11:27:44;;;;;;;7.72;7.22;;;20.90;99.90;;;;;;5114579;28;20171;-79
2022/04/24 11:30:33;;;;;;;7.93;7.13;;;20.50;99.90;;;;;;5115006;28;20258;-78
2022/04/24 11:33:08;;;;;;;9.70;6.72;;;20.80;99.90;;;;;;5115205;28;20171;-79
2022/04/24 11:35:36;;;;;;;10.43;6.75;;;21.00;99.90;;;;;;5114146;28;20191;-79
2022/04/24 11:38:03;;;;;;;8.00;7.20;;;21.30;99.90;;;;;;5096538;28;20626;-79
2022/04/24 11:40:30;;;;;;;7.78;7.18;;;21.30;99.90;;;;;;5114340;28;20179;-78
2022/04/24 11:43:03;;;;;;;7.03;6.53;;;20.90;99.90;;;;;;5114913;28;20228;-79
2022/04/24 11:51:12;;;;;;;7.32;6.72;;;20.00;99.90;;;;;;5114975;28;20179;-77
2022/04/24 11:53:38;;;;;;;6.57;6.18;;;20.40;99.90;;;;;;5114825;28;20626;-77
2022/04/24 11:56:05;;;;;;;6.97;6.22;;;20.60;99.90;;;;;;5114281;28;20246;-78
2022/04/24 11:58:36;;;;;;;6.53;5.60;;;20.80;99.90;;;;;;5095583;28;20186;-78
2022/04/24 12:01:04;;;;;;;8.70;6.50;;;20.70;99.90;;;;;;5114099;28;20167;-78
2022/04/24 12:03:32;;;;;;;6.75;6.05;;;20.80;99.90;;;;;;5113612;28;20234;-77
2022/04/24 12:06:02;;;;;;;7.68;5.88;;;21.10;99.90;;;;;;5095434;28;20182;-76
2022/04/24 12:08:44;;;;;;;6.78;6.18;;;21.00;99.90;;;;;;5114746;28;20558;-79
2022/04/24 12:11:24;;;;;;;6.47;6.00;;;20.20;99.90;;;;;;5113702;28;20234;-77
2022/04/24 12:14:07;;;;;;;6.88;6.28;;;20.00;99.90;;;;;;5113617;28;20162;-76
2022/04/24 12:16:34;;;;;;;7.05;6.35;;;20.10;99.90;;;;;;5114097;28;20167;-76
2022/04/24 12:19:01;;;;;;;7.13;6.00;;;20.90;99.90;;;;;;5113699;28;20626;-77
2022/04/24 12:21:28;;;;;;;8.02;6.95;;;20.90;99.90;;;;;;5094690;28;20228;-77
2022/04/24 12:23:55;;;;;;;7.63;6.75;;;21.20;99.90;;;;;;5113445;28;20229;-79
2022/04/24 12:26:21;;;;;;;10.15;6.35;;;20.80;99.90;;;;;;5114047;28;20164;-78
2022/04/24 12:28:48;;;;;;;7.85;6.60;;;21.10;99.90;;;;;;5095561;28;20232;-76
2022/04/24 12:31:25;;;;;;;6.65;6.03;;;21.00;99.90;;;;;;5113964;28;20175;-76
2022/04/24 12:33:56;;;;;;;6.40;6.00;;;20.60;99.90;;;;;;5113330;28;20163;-76
2022/04/24 12:36:23;;;;;;;6.47;5.97;;;20.30;99.90;;;;;;5094238;28;20219;-75
2022/04/24 12:39:04;;;;;;;6.35;5.70;;;19.80;99.90;;;;;;5095068;28;20594;-75
2022/04/24 12:41:30;;;;;;;6.80;6.30;;;19.80;99.90;;;;;;5113760;28;20169;-74
2022/04/24 12:44:00;;;;;;;6.38;5.78;;;20.20;99.90;;;;;;5113440;28;20203;-75
2022/04/24 12:46:26;;;;;;;6.85;6.13;;;20.50;99.90;;;;;;5113304;28;20172;-76
2022/04/24 12:48:54;;;;;;;7.25;6.00;;;20.70;99.90;;;;;;5112026;28;20619;-75
2022/04/24 12:51:23;;;;;;;6.70;6.10;;;20.20;99.90;;;;;;5113410;28;20630;-75
2022/04/24 12:53:56;;;;;;;6.18;5.78;;;19.90;99.90;;;;;;5113243;28;20630;-75
2022/04/24 12:56:23;;;;;;;5.90;5.50;;;19.80;99.90;;;;;;5113580;28;20207;-75